createdAt,value
2018-01-22T00:00:07.212Z,11.95
2018-01-22T00:02:45.614Z,13.02
2018-01-22T00:05:13.148Z,11.82
2018-01-22T00:07:40.675Z,10.55
2018-01-22T00:10:08.612Z,9.80
2018-01-22T00:12:36.044Z,9.05
2018-01-22T00:15:03.472Z,11.18
2018-01-22T00:17:31.696Z,10.90
2018-01-22T00:19:59.492Z,8.80
2018-01-22T00:22:26.922Z,9.45
2018-01-22T00:24:54.352Z,10.07
2018-01-22T00:27:21.875Z,10.75
2018-01-22T00:29:49.334Z,8.48
2018-01-22T00:32:16.760Z,10.10
2018-01-22T00:34:44.217Z,9.73
2018-01-22T00:37:11.653Z,9.95
2018-01-22T00:39:39.116Z,11.90
2018-01-22T00:42:06.556Z,12.37
2018-01-22T00:44:34.964Z,8.63
2018-01-22T00:47:02.398Z,10.05
2018-01-22T00:49:30.924Z,11.12
2018-01-22T00:51:58.389Z,10.27
2018-01-22T00:54:26.016Z,9.57
2018-01-22T00:56:53.461Z,10.50
2018-01-22T00:59:20.887Z,8.68
2018-01-22T01:01:49.232Z,9.13
2018-01-22T01:04:16.720Z,9.43
2018-01-22T01:06:44.912Z,8.57
2018-01-22T01:09:12.344Z,9.23
2018-01-22T01:11:40.573Z,9.75
2018-01-22T01:14:08.025Z,10.18
2018-01-22T01:16:35.455Z,9.68
2018-01-22T01:19:03.787Z,9.75
2018-01-22T01:21:31.239Z,10.25
2018-01-22T01:23:58.672Z,8.15
2018-01-22T01:26:26.174Z,7.55
2018-01-22T01:28:53.589Z,8.68
2018-01-22T01:31:21.044Z,7.57
2018-01-22T01:33:48.640Z,7.87
2018-01-22T01:36:16.228Z,7.70
2018-01-22T01:38:44.444Z,7.10
2018-01-22T01:41:11.874Z,8.70
2018-01-22T01:43:39.601Z,7.43
2018-01-22T01:46:07.031Z,9.43
2018-01-22T01:48:34.506Z,7.97
2018-01-22T01:51:02.652Z,8.52
2018-01-22T01:53:30.075Z,9.23
2018-01-22T01:55:58.288Z,7.90
2018-01-22T01:58:25.952Z,8.07
2018-01-22T02:00:55.384Z,11.27
2018-01-22T02:03:22.836Z,7.85
2018-01-22T02:05:50.268Z,8.15
2018-01-22T02:08:19.661Z,7.25
2018-01-22T02:10:47.089Z,7.28
2018-01-22T02:13:15.311Z,8.15
2018-01-22T02:15:42.787Z,7.65
2018-01-22T02:18:10.344Z,7.03
2018-01-22T02:20:37.776Z,7.53
2018-01-22T02:23:05.244Z,6.70
2018-01-22T02:25:32.672Z,7.60
2018-01-22T02:28:00.104Z,7.68
2018-01-22T02:30:28.331Z,7.80
2018-01-22T02:32:55.764Z,7.35
2018-01-22T02:35:23.329Z,6.40
2018-01-22T02:37:50.757Z,8.00
2018-01-22T02:40:18.980Z,7.53
2018-01-22T02:42:46.421Z,7.55
2018-01-22T02:45:14.100Z,7.60
2018-01-22T02:47:41.534Z,7.10
2018-01-22T02:50:09.044Z,6.60
2018-01-22T02:52:36.989Z,6.45
2018-01-22T02:55:04.427Z,7.87
2018-01-22T02:57:31.856Z,6.30
2018-01-22T03:00:00.107Z,7.37
2018-01-22T03:02:27.516Z,6.47
2018-01-22T03:04:54.939Z,6.37
2018-01-22T03:07:23.223Z,6.10
2018-01-22T03:09:50.656Z,5.60
2018-01-22T03:12:18.108Z,6.28
2018-01-22T03:14:45.537Z,5.95
2018-01-22T03:17:13.028Z,6.25
2018-01-22T03:19:40.457Z,5.65
2018-01-22T03:22:07.994Z,5.22
2018-01-22T03:24:35.420Z,5.93
2018-01-22T03:27:03.639Z,4.82
2018-01-22T03:29:32.039Z,5.62
2018-01-22T03:31:59.676Z,5.82
2018-01-22T03:34:27.120Z,5.40
2018-01-22T03:36:54.593Z,5.12
2018-01-22T03:39:23.080Z,5.30
2018-01-22T03:41:50.508Z,4.90
2018-01-22T03:44:17.968Z,4.80
2018-01-22T03:46:45.388Z,4.60
2018-01-22T03:49:12.883Z,5.20
2018-01-22T03:51:40.312Z,5.50
2018-01-22T03:54:08.583Z,5.40
2018-01-22T03:56:36.775Z,5.40
2018-01-22T03:59:04.204Z,4.75
2018-01-22T04:01:31.753Z,5.00
2018-01-22T04:03:59.183Z,5.28
2018-01-22T04:06:26.896Z,5.18
2018-01-22T04:08:55.092Z,5.30
2018-01-22T04:11:22.520Z,5.30
2018-01-22T04:13:49.972Z,5.20
2018-01-22T04:16:17.405Z,5.12
2018-01-22T04:18:44.915Z,5.53
2018-01-22T04:21:13.132Z,5.07
2018-01-22T04:23:40.563Z,5.35
2018-01-22T04:26:08.360Z,5.47
2018-01-22T04:28:35.787Z,5.20
2018-01-22T04:31:03.220Z,5.00
2018-01-22T04:33:31.449Z,5.12
2018-01-22T04:35:58.885Z,5.60
2018-01-22T04:38:26.464Z,5.15
2018-01-22T04:40:53.967Z,5.68
2018-01-22T04:43:26.398Z,5.45
2018-01-22T04:45:53.823Z,5.20
2018-01-22T04:48:21.312Z,4.93
2018-01-22T04:50:48.766Z,5.65
2018-01-22T04:53:16.540Z,5.32
2018-01-22T04:55:43.973Z,5.40
2018-01-22T04:58:12.241Z,4.80
2018-01-22T05:00:48.876Z,5.12
2018-01-22T05:03:19.947Z,5.28
2018-01-22T05:05:47.372Z,6.22
2018-01-22T05:08:14.803Z,5.32
2018-01-22T05:10:42.263Z,5.12
2018-01-22T05:13:09.695Z,4.70
2018-01-22T05:15:37.148Z,5.40
2018-01-22T05:18:04.577Z,4.65
2018-01-22T05:20:32.852Z,4.60
2018-01-22T05:23:01.075Z,5.25
2018-01-22T05:25:28.970Z,4.97
2018-01-22T05:27:56.378Z,4.65
2018-01-22T05:30:23.800Z,4.87
2018-01-22T05:32:52.050Z,4.18
2018-01-22T05:35:19.480Z,4.60
2018-01-22T05:37:46.911Z,4.60
2018-01-22T05:40:14.712Z,3.72
2018-01-22T05:42:42.436Z,3.90
2018-01-22T05:45:09.864Z,3.60
2018-01-22T05:47:37.376Z,3.50
2018-01-22T05:50:06.018Z,3.90
2018-01-22T05:52:34.215Z,3.30
2018-01-22T05:55:02.220Z,4.85
2018-01-22T05:57:29.661Z,4.25
2018-01-22T05:59:57.852Z,3.42
2018-01-22T06:02:25.312Z,3.85
2018-01-22T06:04:52.771Z,4.07
2018-01-22T06:07:20.208Z,4.00
2018-01-22T06:09:47.932Z,3.70
2018-01-22T06:12:16.136Z,3.85
2018-01-22T06:14:43.567Z,4.10
2018-01-22T06:17:11.886Z,3.92
2018-01-22T06:19:39.665Z,4.10
2018-01-22T06:22:08.061Z,3.95
2018-01-22T06:24:35.487Z,4.95
2018-01-22T06:27:03.104Z,5.12
2018-01-22T06:29:31.303Z,4.80
2018-01-22T06:31:58.736Z,4.62
2018-01-22T06:34:27.125Z,4.78
2018-01-22T06:36:55.323Z,5.37
2018-01-22T06:39:22.786Z,4.78
2018-01-22T06:41:50.265Z,4.97
2018-01-22T06:44:17.704Z,5.40
2018-01-22T06:46:45.979Z,4.70
2018-01-22T06:49:13.393Z,5.05
2018-01-22T06:51:41.616Z,4.70
2018-01-22T06:54:09.072Z,5.30
2018-01-22T06:56:36.573Z,5.80
2018-01-22T06:59:04.015Z,18.55
2018-01-22T07:01:31.452Z,11.40
2018-01-22T07:03:58.998Z,7.00
2018-01-22T07:06:26.441Z,28.65
2018-01-22T07:08:53.863Z,6.25
2018-01-22T07:11:21.323Z,19.70
2018-01-22T07:13:49.713Z,18.27
2018-01-22T07:16:17.916Z,39.42
2018-01-22T07:18:45.458Z,75.18
2018-01-22T07:21:13.664Z,96.22
2018-01-22T07:23:42.164Z,51.08
2018-01-22T07:26:09.776Z,28.25
2018-01-22T07:28:37.984Z,52.65
2018-01-22T07:31:05.415Z,34.20
2018-01-22T07:33:32.885Z,6.78
2018-01-22T07:36:00.324Z,7.00
2018-01-22T07:38:28.787Z,7.62
2018-01-22T07:40:57.011Z,12.45
2018-01-22T07:43:24.452Z,6.90
2018-01-22T07:45:52.091Z,14.30
2018-01-22T07:48:20.316Z,8.77
2018-01-22T07:50:48.740Z,8.05
2018-01-22T07:53:16.173Z,8.38
2018-01-22T07:55:43.628Z,14.02
2018-01-22T07:58:11.470Z,7.22
2018-01-22T08:00:38.908Z,30.60
2018-01-22T08:03:07.341Z,15.05
2018-01-22T08:05:35.080Z,9.00
2018-01-22T08:08:02.553Z,18.60
2018-01-22T08:10:29.983Z,8.48
2018-01-22T08:12:57.440Z,9.75
2018-01-22T08:15:24.875Z,9.73
2018-01-22T08:17:52.416Z,8.93
2018-01-22T08:20:20.627Z,9.10
2018-01-22T08:22:48.065Z,10.52
2018-01-22T08:25:15.600Z,16.90
2018-01-22T08:27:43.800Z,10.88
2018-01-22T08:30:11.304Z,17.95
2018-01-22T08:32:39.072Z,14.65
2018-01-22T08:35:06.471Z,15.07
2018-01-22T08:37:33.907Z,12.27
2018-01-22T08:40:02.333Z,12.13
2018-01-22T08:42:29.768Z,12.32
2018-01-22T08:44:57.435Z,12.37
2018-01-22T08:47:24.868Z,11.77
2018-01-22T08:49:53.352Z,13.20
2018-01-22T08:52:21.856Z,11.90
2018-01-22T08:54:49.326Z,11.10
2018-01-22T08:57:16.763Z,12.15
2018-01-22T08:59:44.688Z,12.52
2018-01-22T09:02:12.122Z,10.77
2018-01-22T09:04:39.559Z,17.10
2018-01-22T09:07:07.119Z,18.00
2018-01-22T09:09:34.589Z,28.00
2018-01-22T09:12:02.052Z,14.70
2018-01-22T09:14:29.521Z,21.55
2018-01-22T09:16:59.364Z,17.42
2018-01-22T09:19:26.809Z,21.98
2018-01-22T09:21:54.255Z,27.02
2018-01-22T09:24:22.096Z,29.92
2018-01-22T09:26:49.541Z,32.97
2018-01-22T09:29:16.988Z,26.85
2018-01-22T09:31:44.448Z,28.50
2018-01-22T09:34:11.879Z,52.30
2018-01-22T09:36:55.056Z,38.97
2018-01-22T09:39:25.196Z,39.08
2018-01-22T09:41:53.155Z,36.75
2018-01-22T09:44:20.597Z,47.03
2018-01-22T09:46:48.041Z,44.33
2018-01-22T09:49:16.769Z,39.35
2018-01-22T09:51:44.421Z,31.45
2018-01-22T09:54:11.904Z,41.17
2018-01-22T09:56:39.472Z,44.97
2018-01-22T09:59:06.911Z,63.75
2018-01-22T10:01:34.371Z,68.95
2018-01-22T10:04:01.831Z,40.88
2018-01-22T10:06:29.292Z,39.78
2018-01-22T10:08:56.728Z,57.55
2018-01-22T10:11:24.286Z,64.20
2018-01-22T10:13:51.728Z,43.83
2018-01-22T10:16:19.938Z,49.78
2018-01-22T10:18:48.772Z,67.45
2018-01-22T10:21:16.234Z,143.90
2018-01-22T10:23:43.664Z,58.58
2018-01-22T10:26:11.912Z,39.22
2018-01-22T10:28:39.344Z,43.95
2018-01-22T10:31:06.816Z,46.72
2018-01-22T10:33:34.256Z,110.78
2018-01-22T10:36:05.912Z,49.13
2018-01-22T10:38:33.363Z,37.75
2018-01-22T10:41:01.131Z,47.53
2018-01-22T10:43:28.571Z,52.28
2018-01-22T10:45:56.016Z,52.75
2018-01-22T10:48:24.336Z,42.65
2018-01-22T10:50:51.781Z,52.97
2018-01-22T10:53:19.290Z,88.72
2018-01-22T10:55:46.725Z,65.30
2018-01-22T10:58:14.184Z,85.00
2018-01-22T11:00:41.615Z,54.10
2018-01-22T11:03:10.420Z,49.22
2018-01-22T11:05:37.860Z,47.22
2018-01-22T11:08:05.308Z,52.62
2018-01-22T11:10:32.900Z,46.60
2018-01-22T11:13:00.336Z,51.78
2018-01-22T11:15:33.627Z,50.67
2018-01-22T11:18:01.073Z,65.50
2018-01-22T11:20:28.548Z,49.67
2018-01-22T11:22:56.001Z,49.28
2018-01-22T11:25:23.464Z,50.80
2018-01-22T11:27:51.237Z,50.28
2018-01-22T11:30:19.652Z,52.67
2018-01-22T11:32:47.091Z,52.90
2018-01-22T11:35:14.777Z,46.35
2018-01-22T11:37:42.210Z,55.65
2018-01-22T11:40:09.649Z,48.13
2018-01-22T11:42:37.112Z,51.13
2018-01-22T11:45:04.556Z,48.90
2018-01-22T11:47:38.996Z,51.00
2018-01-22T11:50:06.432Z,53.95
2018-01-22T11:52:33.952Z,48.03
2018-01-22T11:55:02.165Z,49.50
2018-01-22T11:57:29.628Z,48.58
2018-01-22T11:59:57.076Z,41.35
2018-01-22T12:02:24.516Z,42.62
2018-01-22T12:04:52.424Z,48.90
2018-01-22T12:07:19.860Z,45.78
2018-01-22T12:09:47.306Z,47.25
2018-01-22T12:12:14.900Z,45.42
2018-01-22T12:14:42.344Z,41.03
2018-01-22T12:17:09.823Z,42.60
2018-01-22T12:19:40.376Z,44.70
2018-01-22T12:22:08.589Z,39.55
2018-01-22T12:24:36.022Z,35.05
2018-01-22T12:27:06.916Z,41.45
2018-01-22T12:29:34.360Z,34.75
2018-01-22T12:32:04.693Z,32.88
2018-01-22T12:34:32.126Z,30.73
2018-01-22T12:36:59.555Z,39.50
2018-01-22T12:39:27.876Z,38.67
2018-01-22T12:41:55.335Z,48.30
2018-01-22T12:44:22.787Z,35.47
2018-01-22T12:46:51.559Z,38.67
2018-01-22T12:49:19.004Z,39.13
2018-01-22T12:51:47.207Z,33.40
2018-01-22T12:54:14.800Z,32.92
2018-01-22T12:56:42.269Z,44.15
2018-01-22T12:59:09.712Z,38.53
2018-01-22T13:01:37.491Z,33.47
2018-01-22T13:04:05.000Z,38.50
2018-01-22T13:06:33.209Z,38.05
2018-01-22T13:09:00.664Z,27.25
2018-01-22T13:11:28.100Z,30.42
2018-01-22T13:13:55.982Z,27.70
2018-01-22T13:16:23.421Z,34.53
2018-01-22T13:18:50.872Z,32.03
2018-01-22T13:21:18.861Z,25.90
2018-01-22T13:23:46.301Z,27.25
2018-01-22T13:26:13.742Z,24.83
2018-01-22T13:28:41.221Z,27.67
2018-01-22T13:31:08.660Z,31.73
2018-01-22T13:33:36.160Z,27.05
2018-01-22T13:36:03.600Z,28.48
2018-01-22T13:38:31.064Z,25.17
2018-01-22T13:41:04.239Z,37.85
2018-01-22T13:43:31.668Z,50.85
2018-01-22T13:45:59.128Z,35.10
2018-01-22T13:48:31.889Z,27.37
2018-01-22T13:51:00.113Z,22.00
2018-01-22T13:53:27.552Z,21.67
2018-01-22T13:55:55.014Z,23.40
2018-01-22T13:58:22.452Z,26.48
2018-01-22T14:00:50.676Z,25.50
2018-01-22T14:03:18.149Z,29.27
2018-01-22T14:05:45.577Z,40.72
2018-01-22T14:08:13.189Z,33.30
2018-01-22T14:10:41.396Z,28.70
2018-01-22T14:13:09.291Z,27.92
2018-01-22T14:15:36.732Z,24.42
2018-01-22T14:18:04.200Z,20.67
2018-01-22T14:20:31.667Z,27.17
2018-01-22T14:22:59.133Z,25.50
2018-01-22T14:25:31.712Z,28.87
2018-01-22T14:28:00.097Z,18.60
2018-01-22T14:30:27.731Z,22.45
2018-01-22T14:32:55.169Z,16.87
2018-01-22T14:35:22.635Z,21.35
2018-01-22T14:37:50.184Z,20.55
2018-01-22T14:40:17.624Z,20.30
2018-01-22T14:42:47.487Z,24.25
2018-01-22T14:45:20.805Z,14.77
2018-01-22T14:47:49.671Z,19.10
2018-01-22T14:50:17.162Z,22.23
2018-01-22T14:52:44.604Z,20.83
2018-01-22T14:55:14.504Z,16.98
2018-01-22T14:57:44.425Z,21.23
2018-01-22T15:00:12.064Z,22.95
2018-01-22T15:02:39.530Z,22.15
2018-01-22T15:05:06.997Z,19.52
2018-01-22T15:07:34.469Z,24.63
2018-01-22T15:10:02.319Z,18.77
2018-01-22T15:12:29.815Z,19.30
2018-01-22T15:14:58.020Z,20.90
2018-01-22T15:17:25.827Z,22.62
2018-01-22T15:19:53.297Z,18.98
2018-01-22T15:22:20.748Z,23.55
2018-01-22T15:24:48.321Z,19.65
2018-01-22T15:27:15.766Z,22.98
2018-01-22T15:29:43.204Z,24.63
2018-01-22T15:32:10.676Z,20.73
2018-01-22T15:34:38.116Z,18.48
2018-01-22T15:37:06.586Z,17.48
2018-01-22T15:39:34.037Z,22.83
2018-01-22T15:42:01.605Z,27.35
2018-01-22T15:44:29.044Z,25.42
2018-01-22T15:46:56.731Z,23.75
2018-01-22T15:49:24.835Z,22.60
2018-01-22T15:51:52.272Z,27.77
2018-01-22T15:54:19.717Z,35.30
2018-01-22T15:56:47.171Z,33.42
2018-01-22T15:59:14.644Z,28.38
2018-01-22T16:01:42.088Z,30.02
2018-01-22T16:04:09.540Z,32.85
2018-01-22T16:06:37.149Z,41.50
2018-01-22T16:09:04.975Z,50.72
2018-01-22T16:11:32.411Z,51.33
2018-01-22T16:14:00.843Z,28.12
2018-01-22T16:16:28.619Z,26.08
2018-01-22T16:18:56.056Z,24.70
2018-01-22T16:21:23.937Z,25.33
2018-01-22T16:23:51.504Z,26.00
2018-01-22T16:26:18.939Z,18.58
2018-01-22T16:28:46.416Z,24.08
2018-01-22T16:31:13.864Z,24.48
2018-01-22T16:33:41.326Z,22.02
2018-01-22T16:36:08.772Z,26.77
2018-01-22T16:38:37.552Z,21.37
2018-01-22T16:41:04.997Z,25.65
2018-01-22T16:43:32.427Z,27.35
2018-01-22T16:46:00.184Z,33.88
2018-01-22T16:48:28.389Z,30.25
2018-01-22T16:50:56.137Z,35.33
2018-01-22T16:53:23.609Z,29.48
2018-01-22T16:55:58.897Z,24.20
2018-01-22T16:58:26.340Z,22.52
2018-01-22T17:00:53.776Z,25.75
2018-01-22T17:03:21.488Z,34.53
2018-01-22T17:05:49.697Z,26.12
2018-01-22T17:08:17.139Z,29.00
2018-01-22T17:10:48.751Z,35.40
2018-01-22T17:13:16.188Z,34.13
2018-01-22T17:15:43.704Z,32.35
2018-01-22T17:18:11.163Z,29.08
2018-01-22T17:20:39.652Z,46.37
2018-01-22T17:23:07.440Z,41.53
2018-01-22T17:25:34.882Z,35.13
2018-01-22T17:28:03.317Z,50.58
2018-01-22T17:30:30.780Z,39.63
2018-01-22T17:32:58.307Z,30.08
2018-01-22T17:35:25.795Z,54.75
2018-01-22T17:37:53.632Z,34.28
2018-01-22T17:40:21.072Z,34.13
2018-01-22T17:42:49.312Z,30.45
2018-01-22T17:45:17.512Z,38.28
2018-01-22T17:47:46.325Z,51.22
2018-01-22T17:50:13.784Z,46.33
2018-01-22T17:52:41.326Z,47.97
2018-01-22T17:55:08.760Z,37.65
2018-01-22T17:57:36.193Z,44.55
2018-01-22T18:00:03.796Z,31.62
2018-01-22T18:02:31.232Z,34.45
2018-01-22T18:04:59.469Z,30.92
2018-01-22T18:07:26.957Z,33.53
2018-01-22T18:09:55.157Z,28.98
2018-01-22T18:12:22.609Z,24.52
2018-01-22T18:14:50.068Z,31.58
2018-01-22T18:17:17.536Z,35.40
2018-01-22T18:19:45.894Z,27.87
2018-01-22T18:25:03.796Z,28.00
2018-01-22T18:27:31.236Z,29.60
2018-01-22T18:29:58.896Z,27.37
2018-01-22T18:32:26.336Z,72.93
2018-01-22T18:34:54.667Z,29.65
2018-01-22T18:37:22.519Z,37.50
2018-01-22T18:39:49.980Z,39.15
2018-01-22T18:42:17.434Z,43.10
2018-01-22T18:44:49.797Z,81.50
2018-01-22T18:47:17.233Z,45.20
2018-01-22T18:49:44.667Z,43.92
2018-01-22T18:52:12.140Z,31.15
2018-01-22T18:54:39.620Z,30.00
2018-01-22T18:57:07.251Z,36.70
2018-01-22T18:59:35.689Z,32.42
2018-01-22T19:02:03.160Z,30.23
2018-01-22T19:04:30.600Z,29.02
2018-01-22T19:06:58.056Z,32.55
2018-01-22T19:09:25.517Z,39.78
2018-01-22T19:11:52.967Z,32.08
2018-01-22T19:14:20.405Z,36.03
2018-01-22T19:16:48.183Z,41.37
2018-01-22T19:19:15.620Z,47.47
2018-01-22T19:21:43.090Z,48.28
2018-01-22T19:24:10.532Z,40.95
2018-01-22T19:26:38.049Z,37.70
2018-01-22T19:29:05.537Z,29.75
2018-01-22T19:31:32.997Z,34.25
2018-01-22T19:34:01.547Z,35.85
2018-01-22T19:36:35.569Z,37.05
2018-01-22T19:39:03.924Z,32.63
2018-01-22T19:41:31.402Z,33.33
2018-01-22T19:43:58.874Z,39.10
2018-01-22T19:46:26.346Z,36.78
2018-01-22T19:48:53.821Z,36.80
2018-01-22T19:51:21.263Z,35.22
2018-01-22T19:53:48.813Z,35.80
2018-01-22T19:56:16.252Z,39.03
2018-01-22T19:58:44.448Z,43.70
2018-01-22T20:01:11.916Z,43.08
2018-01-22T20:03:39.476Z,39.97
2018-01-22T20:06:06.924Z,40.55
2018-01-22T20:08:34.360Z,41.85
2018-01-22T20:11:02.758Z,36.90
2018-01-22T20:13:30.192Z,46.63
2018-01-22T20:15:58.391Z,40.38
2018-01-22T20:18:25.847Z,47.05
2018-01-22T20:20:53.313Z,37.03
2018-01-22T20:23:20.744Z,38.10
2018-01-22T20:25:50.509Z,43.60
2018-01-22T20:28:18.708Z,40.97
2018-01-22T20:30:46.148Z,41.65
2018-01-22T20:33:13.610Z,37.22
2018-01-22T20:35:41.252Z,36.60
2018-01-22T20:38:08.693Z,39.58
2018-01-22T20:40:36.916Z,42.55
2018-01-22T20:43:04.360Z,30.92
2018-01-22T20:45:32.104Z,37.60
2018-01-22T20:47:59.544Z,39.50
2018-01-22T20:50:26.981Z,40.15
2018-01-22T20:52:54.476Z,41.30
2018-01-22T20:55:21.915Z,38.53
2018-01-22T20:57:49.361Z,38.40
2018-01-22T21:00:16.825Z,39.38
2018-01-22T21:02:44.269Z,34.47
2018-01-22T21:05:13.633Z,44.17
2018-01-22T21:07:41.076Z,42.85
2018-01-22T21:10:08.813Z,33.67
2018-01-22T21:12:36.240Z,38.60
2018-01-22T21:15:04.442Z,38.33
2018-01-22T21:17:31.913Z,40.35
2018-01-22T21:19:59.677Z,41.53
2018-01-22T21:22:27.126Z,33.78
2018-01-22T21:24:54.548Z,39.55
2018-01-22T21:27:22.913Z,37.85
2018-01-22T21:29:50.373Z,42.65
2018-01-22T21:32:17.807Z,37.22
2018-01-22T21:34:45.317Z,43.22
2018-01-22T21:37:12.752Z,38.85
2018-01-22T21:39:41.225Z,43.75
2018-01-22T21:42:08.663Z,37.97
2018-01-22T21:44:36.095Z,44.08
2018-01-22T21:47:04.728Z,38.47
2018-01-22T21:49:32.938Z,41.50
2018-01-22T21:52:00.401Z,39.03
2018-01-22T21:54:28.853Z,45.95
2018-01-22T21:56:57.052Z,40.65
2018-01-22T21:59:24.519Z,35.47
2018-01-22T22:01:52.196Z,36.65
2018-01-22T22:04:20.672Z,35.05
2018-01-22T22:06:48.132Z,36.63
2018-01-22T22:09:15.577Z,35.55
2018-01-22T22:11:44.280Z,53.10
2018-01-22T22:14:11.709Z,41.92
2018-01-22T22:16:41.191Z,35.22
2018-01-22T22:19:08.841Z,33.97
2018-01-22T22:21:39.053Z,38.88
2018-01-22T22:24:06.683Z,33.20
2018-01-22T22:26:34.129Z,33.53
2018-01-22T22:29:03.524Z,28.62
2018-01-22T22:31:31.913Z,32.42
2018-01-22T22:33:59.379Z,31.58
2018-01-22T22:36:26.829Z,35.38
2018-01-22T22:38:54.381Z,36.97
2018-01-22T22:41:22.048Z,31.35
2018-01-22T22:43:49.592Z,29.92
2018-01-22T22:46:17.216Z,29.33
2018-01-22T22:48:44.896Z,31.73
2018-01-22T22:51:13.084Z,28.10
2018-01-22T22:53:40.698Z,40.20
2018-01-22T22:56:08.119Z,25.75
2018-01-22T22:58:35.711Z,28.58
2018-01-22T23:01:03.429Z,31.95
2018-01-22T23:03:30.860Z,37.08
2018-01-22T23:05:58.336Z,23.62
2018-01-22T23:08:26.645Z,32.17
2018-01-22T23:10:54.120Z,33.25
2018-01-22T23:13:21.548Z,29.55
2018-01-22T23:15:48.984Z,31.62
2018-01-22T23:18:17.259Z,26.58
2018-01-22T23:20:45.604Z,33.40
2018-01-22T23:23:15.120Z,29.52
2018-01-22T23:25:43.599Z,30.25
2018-01-22T23:28:12.307Z,37.70
2018-01-22T23:30:41.475Z,35.17
2018-01-22T23:33:08.917Z,33.75
2018-01-22T23:35:36.713Z,35.15
2018-01-22T23:38:21.300Z,32.67
2018-01-22T23:40:49.915Z,26.25
2018-01-22T23:43:17.648Z,26.90
2018-01-22T23:45:45.981Z,34.30
2018-01-22T23:48:13.411Z,31.73
2018-01-22T23:50:40.969Z,35.63
2018-01-22T23:53:08.428Z,32.83
2018-01-22T23:55:35.855Z,33.47
2018-01-22T23:58:03.402Z,27.83
